aviador You're here:

NWWW Decoded Metar

NOUMEA in NEW CALEDONIA
Report Time2017-06-25 13:30:00
UTC Time2017-06-25 13:49:50
Flight Rules vfr VFR
WindCalm
Visibility9999 m
Phenomena:N/A
Clouds:Overcast 058 Hf
Expected CloudBase > 1,200 ft AGL from Temp-Dew spread
Ceiling5,800 ft
Temp19°C (ISA +4)
Dew Point16°C (83% RH)
QNH1017 hPa
Density Alt640 ft
Elevation52 ft
Report Wrong Elevation
Raw Report
NWWW 251330Z AUTO 00000KT 9999 OVC058 19/16 Q1017 NOSIG=

Extra information for NWWW:More info

Metar Taf Metar & Taf Last 4 Metars F.Rules Stats Wind Profile Meteogram Temp Stats Airport Information Weather charts Add Link Nearby VenuesMetar ALERT Operation Metar Decoded Social comments